アトランタ の空港の天気 - METARとTAF

ハーツフィールド・ジャクソン・アトランタ国際空港 ( KATL / ATL ) - アメリカ ジョージア州アトランタ
飛行場実況気象(Metar)
観測時間01/23 00:14 EST (01/23 05:14 UTC)
風向・風速南南西 5m/s
視程10km以上
天気現象
全天の8割程度の雲 雲底高度 210m
全天を覆う雲 雲底高度 430m
気温16.7℃
湿度96%
気圧1012hPa
METARKATL 230514Z 21010KT 10SM BKN007 OVC014 17/16 A2987 RMK AO2 CIG 005V009 T01670161
過去の天気等 Google飛行場航空写真 Wunderground天気予報

過去48時間のMETAR

飛行場予報(TAF)
発表時間: 1/23 00:43 EST (1/23 05:43 UTC)
予報対象時間: 23日1時 EST ~ 24日7時 EST
風向・風速南西 5m/s
視程10km以上
全天を覆う雲 雲底高度 300m
23日3時 EST から
風向・風速西南西 5m/s
視程10km以上
全天の8割程度の雲 雲底高度 760m
23日5時 EST から
風向・風速西 5m/s
視程10km以上
全天の4割程度の雲 雲底高度 1,220m
23日8時 EST から
風向・風速西 5m/s
視程10km以上
少しの雲 雲底高度 4,570m
23日10時 EST から
風向・風速西 7m/s 瞬間風速 11m/s
視程10km以上
少しの雲 雲底高度 7,620m
23日19時 EST から
風向・風速西北西 5m/s
視程10km以上
少しの雲 雲底高度 7,620m
KATL 230543Z 2306/2412 23010KT P6SM OVC010
FM230800 25010KT P6SM BKN025
FM231000 26010KT P6SM SCT040
FM231300 28009KT P6SM FEW150
FM231500 28013G21KT P6SM FEW250
FM240000 30010KT P6SM FEW250